Time;durP1;ratioP1;P1;durP2;ratioP2;P2;SDS_P1;SDS_P2;PMS_P1;PMS_P2;Temp;Humidity;BMP_temperature;BMP_pressure;BME280_temperature;BME280_humidity;BME280_pressure;Samples;Min_cycle;Max_cycle;Signal;HPM_P1;HPM_P2
2021/09/10 00:00:59;;;;;;;14.48;6.80;;;;;;;;;;4977798;28;20038;-87
2021/09/10 00:03:25;;;;;;;12.88;6.70;;;;;;;;;;4975537;28;20042;-71
2021/09/10 00:05:51;;;;;;;13.52;7.22;;;;;;;;;;4980231;28;20468;-84
2021/09/10 00:08:17;;;;;;;13.73;6.70;;;;;;;;;;4973324;28;20039;-83
2021/09/10 00:10:43;;;;;;;15.23;7.30;;;;;;;;;;4974378;28;20030;-67
2021/09/10 00:13:09;;;;;;;13.95;7.05;;;;;;;;;;4976046;28;20031;-76
2021/09/10 00:15:35;;;;;;;15.88;7.38;;;;;;;;;;4975700;28;20045;-82
2021/09/10 00:18:01;;;;;;;18.70;7.65;;;;;;;;;;4975617;28;20081;-86
2021/09/10 00:20:27;;;;;;;20.00;8.13;;;;;;;;;;4973892;28;20035;-73
2021/09/10 00:22:54;;;;;;;19.45;7.95;;;;;;;;;;4974760;28;20019;-85
2021/09/10 00:25:20;;;;;;;20.45;8.00;;;;;;;;;;4979229;28;20572;-85
2021/09/10 00:27:46;;;;;;;14.32;7.50;;;;;;;;;;4975569;28;20031;-74
2021/09/10 00:30:12;;;;;;;19.98;8.48;;;;;;;;;;4975190;28;20035;-84
2021/09/10 00:32:38;;;;;;;15.77;7.93;;;;;;;;;;4976157;28;20030;-69
2021/09/10 00:35:05;;;;;;;14.15;7.57;;;;;;;;;;4973903;28;20057;-84
2021/09/10 00:37:32;;;;;;;20.40;8.18;;;;;;;;;;4964163;28;20031;-82
2021/09/10 00:39:58;;;;;;;16.38;7.55;;;;;;;;;;4982119;28;20031;-66
2021/09/10 00:42:24;;;;;;;15.38;7.07;;;;;;;;;;4973955;28;20022;-82
2021/09/10 00:44:50;;;;;;;16.67;7.50;;;;;;;;;;4981074;28;20026;-78
2021/09/10 00:47:16;;;;;;;18.75;7.90;;;;;;;;;;4985442;28;20388;-67
2021/09/10 00:49:42;;;;;;;17.25;7.70;;;;;;;;;;4992747;28;20027;-66
2021/09/10 00:52:08;;;;;;;16.95;7.47;;;;;;;;;;4994559;28;20037;-67
2021/09/10 00:54:34;;;;;;;19.35;7.57;;;;;;;;;;4990419;28;20043;-66
2021/09/10 00:57:00;;;;;;;17.38;7.57;;;;;;;;;;4990299;28;20440;-68
2021/09/10 00:59:26;;;;;;;16.77;7.53;;;;;;;;;;4991366;28;20026;-65
2021/09/10 01:01:52;;;;;;;15.00;7.53;;;;;;;;;;4987456;28;20113;-76
2021/09/10 01:04:22;;;;;;;14.27;7.38;;;;;;;;;;4986547;28;20130;-66
2021/09/10 01:06:49;;;;;;;16.30;7.43;;;;;;;;;;4990951;28;20039;-73
2021/09/10 01:09:15;;;;;;;14.80;6.95;;;;;;;;;;4992380;28;20022;-67
2021/09/10 01:11:41;;;;;;;14.48;7.15;;;;;;;;;;4985888;28;20046;-74
2021/09/10 01:14:07;;;;;;;15.18;6.95;;;;;;;;;;4977248;28;20539;-71
2021/09/10 01:16:33;;;;;;;14.82;7.15;;;;;;;;;;4988183;28;20098;-69
2021/09/10 01:19:00;;;;;;;16.73;7.57;;;;;;;;;;4990728;28;20050;-67
2021/09/10 01:21:26;;;;;;;21.70;6.78;;;;;;;;;;4987734;28;20567;-67
2021/09/10 01:23:52;;;;;;;12.18;6.75;;;;;;;;;;4988868;28;20027;-68
2021/09/10 01:26:18;;;;;;;13.63;6.85;;;;;;;;;;4985169;28;20089;-83
2021/09/10 01:28:44;;;;;;;17.45;6.65;;;;;;;;;;4982845;28;20085;-83
2021/09/10 01:31:10;;;;;;;15.57;7.60;;;;;;;;;;4989829;28;20034;-67
2021/09/10 01:33:36;;;;;;;16.85;7.22;;;;;;;;;;4993864;28;20030;-73
2021/09/10 01:36:02;;;;;;;16.98;7.63;;;;;;;;;;4985951;28;20046;-78
2021/09/10 01:38:35;;;;;;;16.55;7.63;;;;;;;;;;4990117;28;20026;-74
2021/09/10 01:41:02;;;;;;;16.67;7.10;;;;;;;;;;4991926;28;20079;-66
2021/09/10 01:43:28;;;;;;;17.52;7.40;;;;;;;;;;4991439;28;20023;-65
2021/09/10 01:45:54;;;;;;;16.10;6.80;;;;;;;;;;4993311;28;20014;-65
2021/09/10 01:48:22;;;;;;;14.15;7.03;;;;;;;;;;4995162;28;20074;-67
2021/09/10 01:50:48;;;;;;;13.30;6.55;;;;;;;;;;4991547;28;20080;-71
2021/09/10 01:53:14;;;;;;;15.68;6.38;;;;;;;;;;4992834;28;20203;-69
2021/09/10 01:55:40;;;;;;;11.50;5.95;;;;;;;;;;4991052;28;20122;-68
2021/09/10 01:58:07;;;;;;;12.15;5.80;;;;;;;;;;4992462;28;20026;-77
2021/09/10 02:00:33;;;;;;;12.85;6.80;;;;;;;;;;4984237;28;20031;-82
2021/09/10 02:02:59;;;;;;;11.38;6.70;;;;;;;;;;4971656;28;20401;-70
2021/09/10 02:05:25;;;;;;;15.57;6.72;;;;;;;;;;4972032;28;20552;-74
2021/09/10 02:07:51;;;;;;;14.25;6.40;;;;;;;;;;4973888;28;20035;-74
2021/09/10 02:10:18;;;;;;;16.23;6.30;;;;;;;;;;4984109;28;20440;-71
2021/09/10 02:12:44;;;;;;;15.98;6.43;;;;;;;;;;4973883;28;20019;-67
2021/09/10 02:15:10;;;;;;;10.27;5.93;;;;;;;;;;4976252;28;20019;-66
2021/09/10 02:17:37;;;;;;;14.27;5.80;;;;;;;;;;4981675;28;20085;-67
2021/09/10 02:20:04;;;;;;;17.08;7.18;;;;;;;;;;4992970;28;20027;-66
2021/09/10 02:22:32;;;;;;;14.95;6.30;;;;;;;;;;4975161;28;20018;-65
2021/09/10 02:25:00;;;;;;;12.40;6.25;;;;;;;;;;4994672;28;20026;-68
2021/09/10 02:27:26;;;;;;;12.38;6.32;;;;;;;;;;4991464;28;20031;-69
2021/09/10 02:29:54;;;;;;;13.75;6.28;;;;;;;;;;4994921;28;20014;-68
2021/09/10 02:32:20;;;;;;;12.68;6.65;;;;;;;;;;4992059;28;20027;-72
2021/09/10 02:34:46;;;;;;;16.08;7.15;;;;;;;;;;4988774;28;20385;-70
2021/09/10 02:37:12;;;;;;;16.42;6.50;;;;;;;;;;4994430;28;20027;-70
2021/09/10 02:39:39;;;;;;;13.52;6.85;;;;;;;;;;4995598;28;20014;-66
2021/09/10 02:42:05;;;;;;;18.48;7.45;;;;;;;;;;4995079;28;20532;-67
2021/09/10 02:44:32;;;;;;;13.65;6.80;;;;;;;;;;4993248;28;20035;-67
2021/09/10 02:46:58;;;;;;;16.20;7.32;;;;;;;;;;4993311;28;20007;-68
2021/09/10 02:49:25;;;;;;;14.32;7.78;;;;;;;;;;4988976;28;20218;-65
2021/09/10 02:51:51;;;;;;;14.70;7.65;;;;;;;;;;4990991;28;20039;-65
2021/09/10 02:54:19;;;;;;;15.32;7.47;;;;;;;;;;4993006;28;20030;-67
2021/09/10 02:56:45;;;;;;;15.57;7.82;;;;;;;;;;4990539;28;20034;-67
2021/09/10 02:59:11;;;;;;;19.02;8.65;;;;;;;;;;4995948;28;20042;-75
2021/09/10 03:01:43;;;;;;;19.58;8.65;;;;;;;;;;4990437;28;20031;-65
2021/09/10 03:04:12;;;;;;;20.73;8.85;;;;;;;;;;4990629;28;20035;-67
2021/09/10 03:06:38;;;;;;;21.73;9.25;;;;;;;;;;4976897;28;20038;-66
2021/09/10 03:09:04;;;;;;;17.65;9.00;;;;;;;;;;4994770;28;20031;-66
2021/09/10 03:11:31;;;;;;;18.70;9.43;;;;;;;;;;4994262;28;20042;-65
2021/09/10 03:13:57;;;;;;;21.48;9.38;;;;;;;;;;4987940;28;20054;-72
2021/09/10 03:16:23;;;;;;;22.85;10.45;;;;;;;;;;4993274;28;20037;-65
2021/09/10 03:18:49;;;;;;;24.70;11.18;;;;;;;;;;4997968;28;20048;-74
2021/09/10 03:21:15;;;;;;;23.52;11.68;;;;;;;;;;4997721;28;20031;-67
2021/09/10 03:23:41;;;;;;;22.50;11.88;;;;;;;;;;4995108;28;20034;-68
2021/09/10 03:26:07;;;;;;;29.67;13.15;;;;;;;;;;4994002;28;20050;-71
2021/09/10 03:28:33;;;;;;;28.50;12.38;;;;;;;;;;4992512;28;20081;-64
2021/09/10 03:30:59;;;;;;;28.35;12.95;;;;;;;;;;4997717;28;20013;-68
2021/09/10 03:33:25;;;;;;;26.48;13.05;;;;;;;;;;4984505;23;20055;-66
2021/09/10 03:35:51;;;;;;;27.63;14.02;;;;;;;;;;4974367;29;20023;-67
2021/09/10 03:38:17;;;;;;;32.20;13.50;;;;;;;;;;4975312;28;20018;-67
2021/09/10 03:40:43;;;;;;;25.90;13.63;;;;;;;;;;4976052;28;20016;-66
2021/09/10 03:43:09;;;;;;;31.05;15.38;;;;;;;;;;4976447;28;20011;-65
2021/09/10 03:45:35;;;;;;;41.05;18.92;;;;;;;;;;4973719;28;20497;-66
2021/09/10 03:48:02;;;;;;;37.17;19.05;;;;;;;;;;4972375;28;20059;-71
2021/09/10 03:50:28;;;;;;;43.15;20.27;;;;;;;;;;4973362;29;20031;-70
2021/09/10 03:52:54;;;;;;;41.35;20.85;;;;;;;;;;4972348;28;20035;-67
2021/09/10 03:55:20;;;;;;;39.58;20.60;;;;;;;;;;4974416;28;20072;-66
2021/09/10 03:57:47;;;;;;;41.88;21.48;;;;;;;;;;4978196;28;20035;-67
2021/09/10 04:00:13;;;;;;;45.60;23.38;;;;;;;;;;4977458;28;20474;-76
2021/09/10 04:02:40;;;;;;;50.75;23.55;;;;;;;;;;4976643;28;20050;-76
2021/09/10 04:05:06;;;;;;;47.65;23.95;;;;;;;;;;4977168;29;20040;-65
2021/09/10 04:07:32;;;;;;;45.63;22.80;;;;;;;;;;4977464;29;20018;-65
2021/09/10 04:09:58;;;;;;;45.15;21.60;;;;;;;;;;4956450;29;20028;-67
2021/09/10 04:12:24;;;;;;;38.08;20.17;;;;;;;;;;4974529;29;20047;-75
2021/09/10 04:14:50;;;;;;;43.22;20.23;;;;;;;;;;4974860;29;20049;-65
2021/09/10 04:17:16;;;;;;;46.60;20.80;;;;;;;;;;4977056;29;20038;-65
2021/09/10 04:19:42;;;;;;;40.38;20.00;;;;;;;;;;4943230;29;20098;-66
2021/09/10 04:22:08;;;;;;;38.28;19.58;;;;;;;;;;4957136;29;20035;-65
2021/09/10 04:24:34;;;;;;;41.95;19.38;;;;;;;;;;4953924;29;20019;-66
2021/09/10 04:27:00;;;;;;;39.95;18.05;;;;;;;;;;4969659;28;20031;-65
2021/09/10 04:29:27;;;;;;;37.42;17.75;;;;;;;;;;4951083;28;20050;-65
2021/09/10 04:31:54;;;;;;;42.25;19.70;;;;;;;;;;4974102;28;20027;-68
2021/09/10 04:34:20;;;;;;;40.88;18.08;;;;;;;;;;4957233;29;20052;-67
2021/09/10 04:36:46;;;;;;;36.47;18.08;;;;;;;;;;4971649;28;20477;-67
2021/09/10 04:39:12;;;;;;;36.85;18.25;;;;;;;;;;4965817;28;20401;-65
2021/09/10 04:41:38;;;;;;;35.60;17.85;;;;;;;;;;4977086;28;20028;-65
2021/09/10 04:44:06;;;;;;;38.92;17.10;;;;;;;;;;4968204;29;20036;-67
2021/09/10 04:46:33;;;;;;;30.00;17.58;;;;;;;;;;4970986;28;20056;-66
2021/09/10 04:48:59;;;;;;;32.90;15.00;;;;;;;;;;4970062;28;20091;-72
2021/09/10 04:52:16;;;;;;;31.48;15.60;;;;;;;;;;4962184;29;20034;-71
2021/09/10 04:55:04;;;;;;;34.10;14.73;;;;;;;;;;4948185;29;20049;-71
2021/09/10 04:58:21;;;;;;;;;;;;;;;;;;;;;
2021/09/10 05:00:57;;;;;;;;;;;;;;;;;;4969568;28;20031;-82
2021/09/10 05:03:24;;;;;;;22.23;10.23;;;;;;;;;;4959180;29;19919;-81
2021/09/10 05:05:50;;;;;;;22.70;10.40;;;;;;;;;;4967621;29;20035;-71
2021/09/10 05:08:16;;;;;;;24.50;9.90;;;;;;;;;;4965537;29;20034;-83
2021/09/10 05:10:42;;;;;;;17.70;10.00;;;;;;;;;;4964677;28;20031;-79
2021/09/10 05:13:08;;;;;;;19.50;9.10;;;;;;;;;;4965201;28;20106;-77
2021/09/10 05:15:34;;;;;;;17.35;8.43;;;;;;;;;;4949382;29;20086;-80
2021/09/10 05:18:00;;;;;;;17.60;8.18;;;;;;;;;;4936578;29;20035;-72
2021/09/10 05:20:54;;;;;;;18.40;8.43;;;;;;;;;;4955024;29;20435;-77
2021/09/10 05:23:20;;;;;;;;;;;;;;;;;;4954282;29;20054;-80
2021/09/10 05:25:46;;;;;;;18.05;8.48;;;;;;;;;;4954841;28;20365;-78
2021/09/10 05:28:13;;;;;;;34.10;9.15;;;;;;;;;;4954172;29;20027;-83
2021/09/10 05:30:39;;;;;;;21.08;8.80;;;;;;;;;;4954301;29;20058;-83
2021/09/10 05:33:05;;;;;;;26.13;8.88;;;;;;;;;;4953801;29;20043;-83
2021/09/10 05:35:31;;;;;;;17.45;8.07;;;;;;;;;;4954650;29;20097;-72
2021/09/10 05:37:57;;;;;;;19.70;7.75;;;;;;;;;;4953466;28;20039;-71
2021/09/10 05:40:23;;;;;;;24.77;8.70;;;;;;;;;;4954340;28;20078;-78
2021/09/10 05:42:49;;;;;;;21.30;8.65;;;;;;;;;;4953848;29;20028;-79
2021/09/10 05:45:16;;;;;;;16.55;8.80;;;;;;;;;;4954504;29;20031;-75
2021/09/10 05:47:44;;;;;;;22.02;8.85;;;;;;;;;;4954644;29;20036;-77
2021/09/10 05:50:10;;;;;;;25.33;8.57;;;;;;;;;;4953608;29;20038;-71
2021/09/10 05:52:36;;;;;;;20.50;8.80;;;;;;;;;;4954440;29;20094;-74
2021/09/10 05:55:02;;;;;;;19.92;8.70;;;;;;;;;;4953975;29;20031;-73
2021/09/10 05:57:29;;;;;;;20.75;8.52;;;;;;;;;;4954464;29;20159;-68
2021/09/10 05:59:55;;;;;;;22.45;8.95;;;;;;;;;;4954075;29;20746;-73
2021/09/10 06:02:22;;;;;;;16.92;7.72;;;;;;;;;;4954074;28;20035;-81
2021/09/10 06:04:48;;;;;;;23.05;8.57;;;;;;;;;;4953940;29;20027;-79
2021/09/10 06:07:14;;;;;;;22.40;7.85;;;;;;;;;;4952511;29;20431;-80
2021/09/10 06:09:41;;;;;;;21.85;8.45;;;;;;;;;;4942592;29;20027;-70
2021/09/10 06:12:07;;;;;;;17.77;7.05;;;;;;;;;;4953688;29;20063;-77
2021/09/10 06:14:33;;;;;;;24.02;7.63;;;;;;;;;;4953171;29;20338;-79
2021/09/10 06:16:59;;;;;;;19.80;6.85;;;;;;;;;;4954000;28;20070;-69
2021/09/10 06:19:25;;;;;;;15.55;6.82;;;;;;;;;;4952659;29;20090;-83
2021/09/10 06:21:52;;;;;;;14.70;6.60;;;;;;;;;;4953531;29;20107;-82
2021/09/10 06:24:18;;;;;;;14.82;7.22;;;;;;;;;;4953940;29;20038;-79
2021/09/10 06:26:44;;;;;;;13.75;6.55;;;;;;;;;;4953166;29;20485;-81
2021/09/10 06:29:11;;;;;;;25.13;7.03;;;;;;;;;;4953523;28;20043;-71
2021/09/10 06:31:39;;;;;;;18.70;6.85;;;;;;;;;;4953443;28;20051;-82
2021/09/10 06:34:05;;;;;;;15.85;7.38;;;;;;;;;;4953020;29;20114;-83
2021/09/10 06:36:31;;;;;;;23.63;7.78;;;;;;;;;;4953168;29;20046;-84
2021/09/10 06:39:10;;;;;;;16.02;6.82;;;;;;;;;;4953795;28;20027;-72
2021/09/10 06:41:38;;;;;;;17.02;6.82;;;;;;;;;;4935781;29;20023;-71
2021/09/10 06:44:04;;;;;;;14.88;6.72;;;;;;;;;;4952523;29;20108;-83
2021/09/10 06:46:30;;;;;;;16.95;7.28;;;;;;;;;;4952890;28;20070;-75
2021/09/10 06:48:56;;;;;;;17.08;7.18;;;;;;;;;;4953267;28;20031;-81
2021/09/10 06:51:22;;;;;;;15.90;6.60;;;;;;;;;;4956861;29;20039;-75
2021/09/10 06:53:48;;;;;;;15.60;6.60;;;;;;;;;;4956765;29;20513;-74
2021/09/10 06:56:14;;;;;;;13.35;6.80;;;;;;;;;;4957001;29;20502;-70
2021/09/10 06:58:40;;;;;;;16.45;6.72;;;;;;;;;;4956239;29;20026;-71
2021/09/10 07:01:07;;;;;;;16.67;6.95;;;;;;;;;;4939983;28;20031;-72
2021/09/10 07:03:33;;;;;;;14.00;6.25;;;;;;;;;;4957246;29;20146;-69
2021/09/10 07:05:59;;;;;;;12.68;6.32;;;;;;;;;;4957370;29;20458;-73
2021/09/10 07:08:25;;;;;;;16.60;6.95;;;;;;;;;;4948041;29;20042;-73
2021/09/10 07:10:51;;;;;;;14.18;6.50;;;;;;;;;;4965700;28;20158;-72
2021/09/10 07:13:17;;;;;;;15.50;6.47;;;;;;;;;;4955615;29;20493;-68
2021/09/10 07:15:46;;;;;;;17.13;6.35;;;;;;;;;;4957058;29;20043;-76
2021/09/10 07:18:12;;;;;;;13.00;6.22;;;;;;;;;;4955353;29;20039;-75
2021/09/10 07:20:38;;;;;;;13.40;6.05;;;;;;;;;;4961615;28;20038;-75
2021/09/10 07:23:04;;;;;;;12.65;6.05;;;;;;;;;;4955793;28;20034;-69
2021/09/10 07:26:11;;;;;;;14.55;4.80;;;;;;;;;;4955196;29;20056;-69
2021/09/10 07:28:45;;;;;;;13.23;5.57;;;;;;;;;;4870835;29;20045;-76
2021/09/10 07:31:27;;;;;;;15.00;5.43;;;;;;;;;;4875790;29;20037;-73
2021/09/10 07:33:56;;;;;;;9.88;4.65;;;;;;;;;;4876668;29;20045;-72
2021/09/10 07:36:22;;;;;;;11.23;4.68;;;;;;;;;;4876426;29;20081;-69
2021/09/10 07:38:48;;;;;;;8.68;4.57;;;;;;;;;;4883348;29;20037;-69
2021/09/10 07:41:14;;;;;;;17.20;4.20;;;;;;;;;;4879521;29;20060;-70
2021/09/10 07:43:40;;;;;;;13.18;4.50;;;;;;;;;;4879916;29;20053;-67
2021/09/10 07:46:06;;;;;;;8.98;4.10;;;;;;;;;;4886458;29;20562;-72
2021/09/10 07:48:33;;;;;;;9.82;4.60;;;;;;;;;;4878858;29;20025;-75
2021/09/10 07:51:05;;;;;;;18.40;4.88;;;;;;;;;;4878359;29;20201;-73
2021/09/10 07:53:51;;;;;;;11.98;4.22;;;;;;;;;;4878628;29;20029;-74
2021/09/10 07:56:20;;;;;;;11.95;4.65;;;;;;;;;;4813035;29;20085;-72
2021/09/10 07:58:57;;;;;;;17.50;5.25;;;;;;;;;;4821766;29;20041;-70
2021/09/10 08:01:23;;;;;;;10.32;4.53;;;;;;;;;;4822827;29;20053;-67
2021/09/10 08:03:49;;;;;;;13.73;4.47;;;;;;;;;;4882471;29;20111;-68
2021/09/10 08:06:15;;;;;;;17.50;4.68;;;;;;;;;;4877450;29;20503;-66
2021/09/10 08:08:41;;;;;;;15.25;4.45;;;;;;;;;;4881998;29;20132;-68
2021/09/10 08:11:07;;;;;;;9.25;4.18;;;;;;;;;;4874044;29;20032;-66
2021/09/10 08:13:33;;;;;;;10.38;3.95;;;;;;;;;;4873430;29;20041;-67
2021/09/10 08:15:59;;;;;;;9.95;4.18;;;;;;;;;;4878060;29;20060;-69
2021/09/10 08:18:26;;;;;;;11.82;4.50;;;;;;;;;;4876772;29;20484;-67
2021/09/10 08:20:56;;;;;;;10.95;4.30;;;;;;;;;;4872728;29;20469;-65
2021/09/10 08:23:22;;;;;;;12.93;4.45;;;;;;;;;;4875740;29;20437;-67
2021/09/10 08:25:48;;;;;;;8.02;4.40;;;;;;;;;;4876607;29;20277;-69
2021/09/10 08:28:14;;;;;;;9.13;4.53;;;;;;;;;;4873161;29;20523;-72
2021/09/10 08:33:46;;;;;;;12.25;4.78;;;;;;;;;;4856593;29;20041;-73
2021/09/10 08:36:12;;;;;;;13.57;4.90;;;;;;;;;;4876959;29;20554;-74
2021/09/10 08:38:38;;;;;;;14.68;5.57;;;;;;;;;;4877660;29;20076;-71
2021/09/10 08:41:05;;;;;;;14.63;5.47;;;;;;;;;;4876803;29;20041;-68
2021/09/10 08:43:32;;;;;;;15.57;5.45;;;;;;;;;;4876882;29;20033;-70
2021/09/10 08:45:58;;;;;;;9.13;5.32;;;;;;;;;;4877145;29;20041;-66
2021/09/10 08:48:27;;;;;;;13.48;5.97;;;;;;;;;;4877712;29;20105;-69
2021/09/10 08:50:53;;;;;;;12.68;5.88;;;;;;;;;;4876699;29;20041;-68
2021/09/10 08:53:19;;;;;;;14.75;5.63;;;;;;;;;;4877618;29;20037;-68
2021/09/10 08:58:33;;;;;;;15.13;5.50;;;;;;;;;;4876590;29;20064;-69
2021/09/10 09:01:11;;;;;;;9.93;5.80;;;;;;;;;;4876107;29;20394;-76
2021/09/10 09:03:37;;;;;;;21.17;6.55;;;;;;;;;;4871977;29;20504;-75
2021/09/10 09:06:08;;;;;;;16.23;6.65;;;;;;;;;;4876506;29;20484;-70
2021/09/10 09:08:37;;;;;;;19.05;7.38;;;;;;;;;;4860365;29;20029;-69
2021/09/10 09:11:12;;;;;;;19.80;6.72;;;;;;;;;;4923368;28;20036;-78
2021/09/10 09:13:39;;;;;;;16.70;6.75;;;;;;;;;;4953485;29;20072;-72
2021/09/10 09:16:23;;;;;;;20.35;7.25;;;;;;;;;;4953940;29;20071;-72
2021/09/10 09:18:50;;;;;;;17.67;7.10;;;;;;;;;;4954887;29;20102;-72
2021/09/10 09:21:21;;;;;;;14.25;6.60;;;;;;;;;;4954234;28;20028;-70
2021/09/10 09:23:47;;;;;;;15.98;6.57;;;;;;;;;;4954814;29;20031;-71
2021/09/10 09:26:18;;;;;;;15.70;6.72;;;;;;;;;;4954126;29;20019;-69
2021/09/10 09:28:44;;;;;;;19.30;6.43;;;;;;;;;;4954350;29;20031;-69
2021/09/10 09:31:21;;;;;;;21.45;7.35;;;;;;;;;;4952034;29;20031;-75
2021/09/10 09:33:56;;;;;;;14.10;6.28;;;;;;;;;;4923218;29;20515;-76
2021/09/10 09:36:22;;;;;;;14.15;7.15;;;;;;;;;;4932549;29;20039;-78
2021/09/10 09:38:49;;;;;;;11.73;7.00;;;;;;;;;;4944024;29;20023;-79
2021/09/10 09:41:16;;;;;;;17.10;7.45;;;;;;;;;;4941366;29;20035;-84
2021/09/10 09:43:43;;;;;;;16.90;7.63;;;;;;;;;;4911561;29;20549;-81
2021/09/10 09:46:13;;;;;;;15.00;7.15;;;;;;;;;;4935034;29;20459;-79
2021/09/10 09:48:40;;;;;;;17.42;7.43;;;;;;;;;;4941786;29;20027;-77
2021/09/10 09:51:07;;;;;;;20.67;10.43;;;;;;;;;;4936301;29;20032;-70
2021/09/10 09:53:35;;;;;;;12.10;6.05;;;;;;;;;;4935280;29;20032;-79
2021/09/10 09:56:01;;;;;;;15.40;6.72;;;;;;;;;;4936663;29;20038;-81
2021/09/10 09:58:29;;;;;;;13.38;6.45;;;;;;;;;;4934764;29;20119;-78
2021/09/10 10:00:56;;;;;;;11.55;6.40;;;;;;;;;;4936021;29;20032;-80
2021/09/10 10:03:22;;;;;;;18.52;7.50;;;;;;;;;;4931006;29;20027;-79
2021/09/10 10:05:52;;;;;;;13.68;7.00;;;;;;;;;;4935025;29;20490;-73
2021/09/10 10:08:38;;;;;;;17.83;8.10;;;;;;;;;;4936838;29;20478;-77
2021/09/10 10:11:10;;;;;;;16.58;6.53;;;;;;;;;;4925191;29;20123;-71
2021/09/10 10:13:36;;;;;;;15.27;6.60;;;;;;;;;;4949205;29;20028;-76
2021/09/10 10:16:03;;;;;;;19.85;6.35;;;;;;;;;;4936740;29;20036;-76
2021/09/10 10:18:55;;;;;;;37.50;7.32;;;;;;;;;;4934991;29;20115;-71
2021/09/10 10:21:41;;;;;;;10.27;5.75;;;;;;;;;;4934903;29;20054;-75
2021/09/10 10:24:07;;;;;;;80.72;12.07;;;;;;;;;;4934411;29;20032;-67
2021/09/10 10:26:35;;;;;;;18.02;6.50;;;;;;;;;;4934579;29;20382;-69
2021/09/10 10:29:04;;;;;;;14.40;6.15;;;;;;;;;;4934883;29;20602;-77
2021/09/10 10:31:49;;;;;;;14.55;5.80;;;;;;;;;;4940179;29;20032;-72
2021/09/10 10:34:15;;;;;;;17.13;5.70;;;;;;;;;;4953604;29;20157;-75
2021/09/10 10:36:41;;;;;;;10.13;5.55;;;;;;;;;;4953421;29;20058;-74
2021/09/10 10:39:14;;;;;;;20.63;5.35;;;;;;;;;;4953608;28;20381;-78
2021/09/10 10:41:50;;;;;;;9.00;5.28;;;;;;;;;;4952812;29;20027;-66
2021/09/10 10:44:31;;;;;;;12.85;5.47;;;;;;;;;;4953403;29;20031;-69
2021/09/10 10:47:06;;;;;;;15.45;5.78;;;;;;;;;;4952776;29;20030;-72
2021/09/10 10:49:33;;;;;;;11.27;5.00;;;;;;;;;;4953348;28;20027;-71
2021/09/10 10:51:59;;;;;;;15.90;5.90;;;;;;;;;;4959667;28;20027;-72
2021/09/10 10:54:29;;;;;;;14.90;6.20;;;;;;;;;;4953613;28;20034;-76
2021/09/10 10:56:58;;;;;;;10.98;5.88;;;;;;;;;;4953401;29;20122;-77
2021/09/10 10:59:25;;;;;;;14.30;5.78;;;;;;;;;;4953768;29;20015;-73
2021/09/10 11:02:10;;;;;;;15.98;5.65;;;;;;;;;;4952932;28;20103;-75
2021/09/10 11:04:49;;;;;;;11.32;5.72;;;;;;;;;;4952905;29;20441;-76
2021/09/10 11:07:19;;;;;;;13.07;5.35;;;;;;;;;;4951988;29;20031;-73
2021/09/10 11:09:58;;;;;;;14.85;5.68;;;;;;;;;;4942212;29;20099;-72
2021/09/10 11:12:25;;;;;;;9.05;4.75;;;;;;;;;;4935314;29;20047;-75
2021/09/10 11:14:51;;;;;;;11.30;5.13;;;;;;;;;;4953162;29;20401;-73
2021/09/10 11:17:21;;;;;;;19.35;5.47;;;;;;;;;;4953235;29;20486;-67
2021/09/10 11:19:48;;;;;;;9.23;4.85;;;;;;;;;;4935967;29;20027;-64
2021/09/10 11:22:15;;;;;;;43.10;8.63;;;;;;;;;;4952997;28;20035;-69
2021/09/10 11:24:42;;;;;;;13.80;5.05;;;;;;;;;;4952956;29;20019;-63
2021/09/10 11:27:27;;;;;;;19.23;5.10;;;;;;;;;;4953508;29;20418;-71
2021/09/10 11:29:54;;;;;;;11.32;4.78;;;;;;;;;;4942745;29;20031;-65
2021/09/10 11:32:24;;;;;;;13.07;5.45;;;;;;;;;;4953143;29;20126;-71
2021/09/10 11:34:50;;;;;;;8.13;3.85;;;;;;;;;;4952284;28;20031;-64
2021/09/10 11:37:25;;;;;;;8.60;4.60;;;;;;;;;;4956486;28;20138;-64
2021/09/10 11:39:51;;;;;;;10.90;4.47;;;;;;;;;;4955630;29;20023;-67
2021/09/10 11:42:32;;;;;;;13.10;4.43;;;;;;;;;;4963028;28;20083;-68
2021/09/10 11:45:16;;;;;;;8.95;4.05;;;;;;;;;;4955964;29;20035;-70
2021/09/10 11:47:45;;;;;;;11.32;4.25;;;;;;;;;;4953453;29;20027;-67
2021/09/10 11:50:12;;;;;;;8.68;3.78;;;;;;;;;;4931509;29;20036;-67
2021/09/10 11:52:39;;;;;;;13.88;4.15;;;;;;;;;;4956464;28;20027;-69
2021/09/10 11:55:07;;;;;;;8.43;3.70;;;;;;;;;;4956223;29;20032;-70
2021/09/10 11:57:33;;;;;;;9.32;4.07;;;;;;;;;;4955951;28;20023;-69
2021/09/10 12:00:01;;;;;;;7.97;3.70;;;;;;;;;;4955731;29;20031;-69
2021/09/10 12:02:27;;;;;;;7.00;3.75;;;;;;;;;;4955969;28;20027;-71
2021/09/10 12:04:57;;;;;;;12.32;4.00;;;;;;;;;;4956106;29;20033;-68
2021/09/10 12:07:27;;;;;;;9.80;3.70;;;;;;;;;;4953797;29;20104;-72
2021/09/10 12:09:53;;;;;;;11.57;4.47;;;;;;;;;;4946204;29;20019;-71
2021/09/10 12:12:26;;;;;;;7.28;3.55;;;;;;;;;;4954877;29;20094;-67
2021/09/10 12:15:02;;;;;;;11.45;3.90;;;;;;;;;;4956016;29;20091;-70
2021/09/10 12:17:39;;;;;;;9.07;3.95;;;;;;;;;;4955830;29;20126;-65
2021/09/10 12:20:08;;;;;;;9.48;3.97;;;;;;;;;;4955907;29;20050;-66
2021/09/10 12:23:03;;;;;;;12.13;4.07;;;;;;;;;;4956057;29;20038;-72
2021/09/10 12:25:34;;;;;;;11.63;4.25;;;;;;;;;;4896802;29;20491;-70
2021/09/10 12:28:07;;;;;;;10.52;3.78;;;;;;;;;;4896846;29;20029;-72
2021/09/10 12:30:36;;;;;;;11.18;3.90;;;;;;;;;;4902224;29;20522;-72
2021/09/10 12:33:02;;;;;;;11.68;4.13;;;;;;;;;;4896334;29;20051;-65
2021/09/10 12:35:29;;;;;;;7.45;3.63;;;;;;;;;;4896100;29;20049;-69
2021/09/10 12:38:00;;;;;;;9.18;3.70;;;;;;;;;;4896173;29;20033;-70
2021/09/10 12:40:31;;;;;;;8.10;3.72;;;;;;;;;;4896752;29;20433;-71
2021/09/10 12:42:58;;;;;;;12.13;3.88;;;;;;;;;;4900649;29;20402;-71
2021/09/10 12:45:24;;;;;;;9.30;3.70;;;;;;;;;;4894320;29;20044;-72
2021/09/10 12:47:50;;;;;;;5.75;3.53;;;;;;;;;;4896555;29;20052;-72
2021/09/10 12:50:17;;;;;;;8.63;3.97;;;;;;;;;;4901877;29;20036;-72
2021/09/10 12:52:43;;;;;;;11.77;4.07;;;;;;;;;;4897884;29;20028;-71
2021/09/10 12:55:09;;;;;;;7.80;3.90;;;;;;;;;;4896171;29;20131;-68
2021/09/10 12:57:35;;;;;;;7.30;3.80;;;;;;;;;;4896199;29;20119;-72
2021/09/10 13:00:02;;;;;;;9.18;3.90;;;;;;;;;;4897012;29;20036;-70
2021/09/10 13:02:28;;;;;;;11.90;3.60;;;;;;;;;;4942763;28;20054;-72
2021/09/10 13:04:54;;;;;;;14.43;3.75;;;;;;;;;;4955148;29;20038;-72
2021/09/10 13:07:21;;;;;;;12.43;4.40;;;;;;;;;;4952557;29;20020;-70
2021/09/10 13:09:47;;;;;;;9.55;3.65;;;;;;;;;;4944681;29;20031;-67
2021/09/10 13:12:13;;;;;;;12.43;3.95;;;;;;;;;;4954333;29;20107;-66
2021/09/10 13:14:40;;;;;;;9.57;3.97;;;;;;;;;;4955235;29;20031;-73
2021/09/10 13:17:06;;;;;;;11.65;3.97;;;;;;;;;;4955914;29;20122;-73
2021/09/10 13:19:32;;;;;;;12.10;4.50;;;;;;;;;;4954392;29;20038;-71
2021/09/10 13:21:58;;;;;;;10.57;7.25;;;;;;;;;;4955030;28;20031;-73
2021/09/10 13:24:24;;;;;;;10.85;4.05;;;;;;;;;;4954508;29;20035;-69
2021/09/10 13:26:50;;;;;;;9.38;4.20;;;;;;;;;;4954849;29;20062;-72
2021/09/10 13:29:19;;;;;;;12.35;3.50;;;;;;;;;;4954753;28;20397;-75
2021/09/10 13:31:45;;;;;;;9.93;3.85;;;;;;;;;;4954231;29;20509;-68
2021/09/10 13:34:11;;;;;;;11.93;3.63;;;;;;;;;;4953867;29;20110;-66
2021/09/10 13:36:38;;;;;;;12.95;8.48;;;;;;;;;;4953904;29;20035;-74
2021/09/10 13:39:05;;;;;;;9.98;4.13;;;;;;;;;;4953292;29;20031;-74
2021/09/10 13:41:31;;;;;;;7.38;3.50;;;;;;;;;;4954019;29;20481;-63
2021/09/10 13:43:57;;;;;;;9.48;3.60;;;;;;;;;;4956475;28;20045;-72
2021/09/10 13:46:23;;;;;;;8.27;3.85;;;;;;;;;;4937554;29;20043;-74
2021/09/10 13:48:49;;;;;;;10.93;5.00;;;;;;;;;;4953856;29;20022;-73
2021/09/10 13:51:15;;;;;;;11.52;4.00;;;;;;;;;;4933586;29;20044;-74
2021/09/10 13:53:43;;;;;;;5.93;3.50;;;;;;;;;;4950975;29;20050;-68
2021/09/10 13:56:10;;;;;;;17.35;3.90;;;;;;;;;;4952423;29;20493;-72
2021/09/10 13:58:38;;;;;;;7.30;3.78;;;;;;;;;;4953721;28;20027;-69
2021/09/10 14:01:04;;;;;;;21.58;4.45;;;;;;;;;;4953401;28;20508;-70
2021/09/10 14:03:30;;;;;;;10.30;3.95;;;;;;;;;;4954317;29;20035;-71
2021/09/10 14:06:14;;;;;;;;;;;;;;;;;;;;;
2021/09/10 14:08:44;;;;;;;12.38;4.13;;;;;;;;;;4940865;29;20478;-70
2021/09/10 14:11:10;;;;;;;11.25;3.63;;;;;;;;;;4924477;29;20058;-72
2021/09/10 14:13:36;;;;;;;7.18;3.78;;;;;;;;;;4953948;29;20038;-73
2021/09/10 14:16:02;;;;;;;9.32;3.70;;;;;;;;;;4954073;28;20031;-75
2021/09/10 14:18:28;;;;;;;8.82;3.65;;;;;;;;;;4953279;29;20761;-74
2021/09/10 14:20:54;;;;;;;9.07;3.47;;;;;;;;;;4953354;28;20027;-76
2021/09/10 14:23:21;;;;;;;22.10;4.63;;;;;;;;;;4953664;29;20051;-69
2021/09/10 14:25:49;;;;;;;16.33;4.30;;;;;;;;;;4956245;28;20027;-70
2021/09/10 14:28:38;;;;;;;5.78;3.63;;;;;;;;;;4953650;29;20031;-71
2021/09/10 14:31:04;;;;;;;9.18;3.65;;;;;;;;;;4953055;28;20035;-77
2021/09/10 14:33:58;;;;;;;;;;;;;;;;;;;;;
2021/09/10 14:36:25;;;;;;;10.25;4.00;;;;;;;;;;4953525;29;20504;-72
2021/09/10 14:38:51;;;;;;;7.82;3.55;;;;;;;;;;4953106;29;20075;-72
2021/09/10 14:41:48;;;;;;;13.55;3.63;;;;;;;;;;4953123;29;20039;-76
2021/09/10 14:44:21;;;;;;;9.68;3.70;;;;;;;;;;4935723;29;20031;-76
2021/09/10 14:46:47;;;;;;;;;;;;;;;;;;4954192;29;20031;-73